createdAt,value
2023-04-03T00:00:04.169Z,101586.88
2023-04-03T00:02:05.773Z,101583.84
2023-04-03T00:04:07.464Z,101578.16
2023-04-03T00:06:10.046Z,101580.34
2023-04-03T00:08:11.557Z,101584.06
2023-04-03T00:10:13.525Z,101584.56
2023-04-03T00:12:15.070Z,101590.03
2023-04-03T00:14:18.133Z,101583.88
2023-04-03T00:16:19.818Z,101586.78
2023-04-03T00:18:21.727Z,101587.56
2023-04-03T00:20:23.757Z,101589.31
2023-04-03T00:22:25.410Z,101586.88
2023-04-03T00:24:27.171Z,101593.16
2023-04-03T00:26:28.720Z,101599.00
2023-04-03T00:28:30.574Z,101597.13
2023-04-03T00:30:33.886Z,101591.75
2023-04-03T00:32:35.549Z,101595.50
2023-04-03T00:34:37.195Z,101590.13
2023-04-03T00:36:38.870Z,101599.09
2023-04-03T00:38:40.701Z,101600.16
2023-04-03T00:40:45.028Z,101603.63
2023-04-03T00:42:48.830Z,101601.06
2023-04-03T00:45:29.370Z,101607.00
2023-04-03T00:47:32.769Z,101608.91
2023-04-03T00:49:34.851Z,101602.94
2023-04-03T00:51:36.604Z,101606.31
2023-04-03T00:53:40.856Z,101601.06
2023-04-03T00:55:43.853Z,101599.31
2023-04-03T00:57:47.382Z,101606.16
2023-04-03T00:59:54.378Z,101597.91
2023-04-03T01:01:56.484Z,101604.38
2023-04-03T01:04:01.344Z,101602.91
2023-04-03T01:06:03.768Z,101608.09
2023-04-03T01:08:06.153Z,101602.38
2023-04-03T01:10:10.320Z,101610.88
2023-04-03T01:12:16.859Z,101602.59
2023-04-03T01:14:18.624Z,101600.59
2023-04-03T01:16:20.320Z,101599.44
2023-04-03T01:18:24.167Z,101598.97
2023-04-03T01:20:50.542Z,101600.59
2023-04-03T01:22:59.583Z,101589.88
2023-04-03T01:25:01.698Z,101602.25
2023-04-03T01:27:07.281Z,101601.88
2023-04-03T01:29:08.908Z,101599.09
2023-04-03T01:31:20.525Z,101597.28
2023-04-03T01:33:23.781Z,101598.56
2023-04-03T01:35:25.596Z,101594.50
2023-04-03T01:37:29.930Z,101602.91
2023-04-03T01:39:31.528Z,101601.81
2023-04-03T01:41:33.438Z,101599.44
2023-04-03T01:43:35.078Z,101603.03
2023-04-03T01:45:36.823Z,101602.88
2023-04-03T01:47:38.475Z,101606.50
2023-04-03T01:49:41.364Z,101605.91
2023-04-03T01:51:43.048Z,101607.31
2023-04-03T01:53:44.639Z,101605.31
2023-04-03T01:55:46.261Z,101612.66
2023-04-03T01:57:47.799Z,101610.25
2023-04-03T01:59:49.361Z,101613.28
2023-04-03T02:01:51.064Z,101606.06
2023-04-03T02:03:52.820Z,101618.25
2023-04-03T02:05:58.423Z,101623.03
2023-04-03T02:08:00.106Z,101620.94
2023-04-03T02:10:01.919Z,101620.06
2023-04-03T02:12:03.768Z,101619.22
2023-04-03T02:14:05.464Z,101618.88
2023-04-03T02:16:08.278Z,101615.44
2023-04-03T02:18:10.353Z,101621.31
2023-04-03T02:20:12.397Z,101620.56
2023-04-03T02:22:15.416Z,101614.00
2023-04-03T02:24:17.028Z,101620.16
2023-04-03T02:26:18.686Z,101615.00
2023-04-03T02:28:20.342Z,101620.63
2023-04-03T02:30:22.425Z,101613.72
2023-04-03T02:32:24.444Z,101617.19
2023-04-03T02:34:26.151Z,101622.03
2023-04-03T02:36:27.740Z,101617.38
2023-04-03T02:38:30.959Z,101611.50
2023-04-03T02:40:32.517Z,101612.53
2023-04-03T02:42:34.145Z,101614.88
2023-04-03T02:44:35.866Z,101612.53
2023-04-03T02:46:38.212Z,101606.91
2023-04-03T02:48:40.116Z,101610.75
2023-04-03T02:50:42.407Z,101612.44
2023-04-03T02:52:44.018Z,101614.28
2023-04-03T02:54:46.998Z,101609.28
2023-04-03T02:56:48.733Z,101607.53
2023-04-03T02:58:50.550Z,101615.00
2023-04-03T03:00:52.154Z,101614.13
2023-04-03T03:02:54.060Z,101607.47
2023-04-03T03:04:58.915Z,101608.81
2023-04-03T03:07:00.586Z,101609.91
2023-04-03T03:09:02.270Z,101600.47
2023-04-03T03:11:06.253Z,101603.31
2023-04-03T03:13:07.858Z,101605.59
2023-04-03T03:15:10.189Z,101601.50
2023-04-03T03:17:11.837Z,101597.56
2023-04-03T03:19:13.450Z,101612.16
2023-04-03T03:21:15.343Z,101609.06
2023-04-03T03:23:17.015Z,101611.50
2023-04-03T03:25:18.569Z,101619.53
2023-04-03T03:27:21.806Z,101609.44
2023-04-03T03:29:23.610Z,101617.22
2023-04-03T03:31:25.323Z,101624.41
2023-04-03T03:33:27.356Z,101628.53
2023-04-03T03:35:28.922Z,101618.06
2023-04-03T03:37:30.609Z,101622.16
2023-04-03T03:39:32.259Z,101611.88
2023-04-03T03:41:33.924Z,101620.25
2023-04-03T03:43:37.020Z,101620.19
2023-04-03T03:45:38.983Z,101621.06
2023-04-03T03:47:40.873Z,101616.16
2023-04-03T03:49:42.639Z,101617.41
2023-04-03T03:51:44.297Z,101624.94
2023-04-03T03:53:45.829Z,101624.50
2023-04-03T03:55:50.001Z,101625.59
2023-04-03T03:57:51.559Z,101620.47
2023-04-03T03:59:54.513Z,101617.13
2023-04-03T04:01:56.070Z,101628.06
2023-04-03T04:03:57.917Z,101631.56
2023-04-03T04:05:59.527Z,101624.31
2023-04-03T04:08:01.130Z,101623.53
2023-04-03T04:10:02.905Z,101624.59
2023-04-03T04:12:04.863Z,101622.16
2023-04-03T04:14:06.914Z,101621.72
2023-04-03T04:16:12.663Z,101621.72
2023-04-03T04:18:14.206Z,101622.72
2023-04-03T04:20:16.048Z,101620.09
2023-04-03T04:22:17.667Z,101622.78
2023-04-03T04:24:19.297Z,101625.00
2023-04-03T04:26:21.549Z,101625.78
2023-04-03T04:28:23.612Z,101618.44
2023-04-03T04:30:25.153Z,101627.91
2023-04-03T04:32:28.148Z,101622.88
2023-04-03T04:34:29.848Z,101628.63
2023-04-03T04:36:31.623Z,101625.91
2023-04-03T04:38:33.223Z,101622.63
2023-04-03T04:40:34.750Z,101629.06
2023-04-03T04:42:36.342Z,101624.13
2023-04-03T04:44:37.931Z,101619.97
2023-04-03T04:46:39.523Z,101621.38
2023-04-03T04:48:42.621Z,101619.63
2023-04-03T04:50:44.177Z,101618.81
2023-04-03T04:52:45.951Z,101623.06
2023-04-03T04:54:47.634Z,101627.00
2023-04-03T04:56:49.303Z,101628.31
2023-04-03T04:58:51.019Z,101625.41
2023-04-03T05:00:59.608Z,101626.44
2023-04-03T05:03:01.229Z,101628.72
2023-04-03T05:05:05.364Z,101625.03
2023-04-03T05:07:07.266Z,101627.03
2023-04-03T05:09:16.286Z,101629.94
2023-04-03T05:11:17.959Z,101627.88
2023-04-03T05:13:19.702Z,101634.81
2023-04-03T05:15:21.329Z,101641.03
2023-04-03T05:17:22.975Z,101646.38
2023-04-03T05:19:24.585Z,101635.25
2023-04-03T05:21:27.550Z,101638.31
2023-04-03T05:23:29.195Z,101641.44
2023-04-03T05:25:30.938Z,101641.44
2023-04-03T05:27:32.809Z,101645.06
2023-04-03T05:29:34.427Z,101641.56
2023-04-03T05:31:36.146Z,101639.56
2023-04-03T05:33:38.117Z,101638.56
2023-04-03T05:35:39.931Z,101647.13
2023-04-03T05:37:43.265Z,101641.97
2023-04-03T05:39:45.028Z,101644.38
2023-04-03T05:41:49.656Z,101649.94
2023-04-03T05:43:51.582Z,101652.16
2023-04-03T05:45:53.326Z,101649.44
2023-04-03T05:47:55.002Z,101647.97
2023-04-03T05:49:56.710Z,101655.13
2023-04-03T05:51:59.735Z,101650.38
2023-04-03T05:54:10.168Z,101654.66
2023-04-03T05:56:11.937Z,101654.69
2023-04-03T05:58:13.591Z,101658.59
2023-04-03T06:00:16.246Z,101658.31
2023-04-03T06:02:20.446Z,101653.13
2023-04-03T06:04:22.096Z,101661.97
2023-04-03T06:06:23.725Z,101661.38
2023-04-03T06:08:25.492Z,101664.88
2023-04-03T06:10:28.461Z,101663.44
2023-04-03T06:12:30.126Z,101661.66
2023-04-03T06:14:32.005Z,101664.38
2023-04-03T06:16:33.776Z,101659.69
2023-04-03T06:18:35.452Z,101664.03
2023-04-03T06:20:37.359Z,101665.63
2023-04-03T06:22:41.835Z,101667.44
2023-04-03T06:24:43.457Z,101666.63
2023-04-03T06:26:46.459Z,101668.25
2023-04-03T06:28:47.920Z,101673.00
2023-04-03T06:30:49.630Z,101671.53
2023-04-03T06:32:51.693Z,101671.03
2023-04-03T06:34:53.365Z,101673.72
2023-04-03T06:36:55.003Z,101670.97
2023-04-03T06:38:56.684Z,101669.56
2023-04-03T06:40:58.608Z,101672.66
2023-04-03T06:43:01.662Z,101675.72
2023-04-03T06:45:03.490Z,101675.19
2023-04-03T06:47:05.307Z,101673.72
2023-04-03T06:49:06.970Z,101676.56
2023-04-03T06:51:21.258Z,101679.94
2023-04-03T06:53:22.798Z,101683.38
2023-04-03T06:55:25.574Z,101685.84
2023-04-03T06:57:27.232Z,101693.38
2023-04-03T06:59:30.340Z,101683.44
2023-04-03T07:01:32.681Z,101687.03
2023-04-03T07:03:35.609Z,101690.50
2023-04-03T07:05:37.478Z,101690.59
2023-04-03T07:07:39.336Z,101689.31
2023-04-03T07:09:41.859Z,101693.44
2023-04-03T07:11:44.907Z,101699.75
2023-04-03T07:13:46.665Z,101703.03
2023-04-03T07:15:49.657Z,101706.03
2023-04-03T07:17:51.293Z,101707.28
2023-04-03T07:19:52.940Z,101709.56
2023-04-03T07:21:54.694Z,101705.97
2023-04-03T07:23:56.317Z,101709.38
2023-04-03T07:25:58.285Z,101715.22
2023-04-03T07:28:00.066Z,101712.50
2023-04-03T07:30:01.676Z,101709.31
2023-04-03T07:32:05.078Z,101713.50
2023-04-03T07:34:06.727Z,101710.94
2023-04-03T07:36:10.649Z,101710.00
2023-04-03T07:38:12.964Z,101715.06
2023-04-03T07:40:14.631Z,101711.13
2023-04-03T07:42:16.255Z,101711.28
2023-04-03T07:44:18.471Z,101723.66
2023-04-03T07:46:20.250Z,101716.66
2023-04-03T07:48:24.478Z,101720.19
2023-04-03T07:50:26.221Z,101715.38
2023-04-03T07:52:27.898Z,101720.31
2023-04-03T07:54:29.653Z,101718.25
2023-04-03T07:56:31.256Z,101710.66
2023-04-03T07:58:32.850Z,101720.25
2023-04-03T08:00:34.435Z,101718.50
2023-04-03T08:02:36.147Z,101725.28
2023-04-03T08:04:39.711Z,101717.34
2023-04-03T08:06:46.443Z,101718.16
2023-04-03T08:08:48.788Z,101723.75
2023-04-03T08:10:52.379Z,101721.28
2023-04-03T08:12:53.995Z,101722.44
2023-04-03T08:14:55.678Z,101720.72
2023-04-03T08:16:57.859Z,101725.84
2023-04-03T08:18:59.794Z,101720.97
2023-04-03T08:21:06.801Z,101721.53
2023-04-03T08:23:09.064Z,101729.97
2023-04-03T08:25:10.680Z,101720.59
2023-04-03T08:27:12.327Z,101718.16
2023-04-03T08:29:14.097Z,101719.53
2023-04-03T08:31:17.724Z,101726.66
2023-04-03T08:33:19.437Z,101715.34
2023-04-03T08:35:20.968Z,101712.66
2023-04-03T08:37:23.936Z,101709.00
2023-04-03T08:39:26.238Z,101707.31
2023-04-03T08:41:35.323Z,101717.00
2023-04-03T08:43:48.823Z,101712.34
2023-04-03T08:45:52.612Z,101713.03
2023-04-03T08:48:01.141Z,101710.69
2023-04-03T08:50:05.474Z,101709.34
2023-04-03T08:52:16.588Z,101707.31
2023-04-03T08:54:29.024Z,101709.38
2023-04-03T08:56:32.086Z,101713.84
2023-04-03T08:58:42.288Z,101718.31
2023-04-03T09:00:48.864Z,101714.72
2023-04-03T09:02:52.007Z,101711.75
2023-04-03T09:04:53.915Z,101709.66
2023-04-03T09:06:59.328Z,101709.56
2023-04-03T09:09:14.507Z,101705.91
2023-04-03T09:11:24.625Z,101712.13
2023-04-03T09:13:38.338Z,101711.03
2023-04-03T09:15:40.360Z,101705.75
2023-04-03T09:17:47.369Z,101707.97
2023-04-03T09:19:55.724Z,101706.91
2023-04-03T09:21:58.800Z,101709.16
2023-04-03T09:24:04.475Z,101704.53
2023-04-03T09:26:10.430Z,101718.72
2023-04-03T09:28:13.414Z,101711.81
2023-04-03T09:30:16.884Z,101701.44
2023-04-03T09:32:28.104Z,101704.28
2023-04-03T09:34:33.077Z,101710.72
2023-04-03T09:36:43.598Z,101705.41
2023-04-03T09:38:45.297Z,101703.88
2023-04-03T09:40:48.839Z,101694.88
2023-04-03T09:42:55.447Z,101701.72
2023-04-03T09:45:06.012Z,101701.06
2023-04-03T09:47:20.687Z,101700.22
2023-04-03T09:49:22.606Z,101702.91
2023-04-03T09:51:27.228Z,101707.22
2023-04-03T09:53:32.427Z,101707.44
2023-04-03T09:55:43.386Z,101694.25
2023-04-03T09:57:45.662Z,101700.34
2023-04-03T09:59:59.111Z,101703.63
2023-04-03T10:02:05.392Z,101702.84
2023-04-03T10:04:12.804Z,101702.34
2023-04-03T10:06:24.592Z,101696.88
2023-04-03T10:08:29.822Z,101691.78
2023-04-03T10:10:31.393Z,101689.81
2023-04-03T10:12:33.004Z,101695.78
2023-04-03T10:14:36.319Z,101686.00
2023-04-03T10:16:42.737Z,101689.88
2023-04-03T10:18:50.612Z,101692.38
2023-04-03T10:20:55.088Z,101683.97
2023-04-03T10:23:05.307Z,101687.56
2023-04-03T10:25:15.770Z,101686.47
2023-04-03T10:27:25.039Z,101686.59
2023-04-03T10:29:37.122Z,101688.00
2023-04-03T10:31:47.284Z,101688.53
2023-04-03T10:34:05.436Z,101685.75
2023-04-03T10:36:13.471Z,101681.69
2023-04-03T10:38:23.372Z,101683.19
2023-04-03T10:40:31.845Z,101686.44
2023-04-03T10:42:41.320Z,101685.28
2023-04-03T10:45:02.757Z,101685.16
2023-04-03T10:47:13.952Z,101683.97
2023-04-03T10:49:32.000Z,101680.94
2023-04-03T10:51:42.233Z,101685.38
2023-04-03T10:53:51.316Z,101689.16
2023-04-03T10:55:58.365Z,101687.13
2023-04-03T10:58:05.474Z,101684.63
2023-04-03T11:00:17.071Z,101686.03
2023-04-03T11:02:27.924Z,101681.06
2023-04-03T11:04:37.066Z,101687.00
2023-04-03T11:06:44.393Z,101682.84
2023-04-03T11:08:51.281Z,101684.03
2023-04-03T11:10:56.351Z,101679.09
2023-04-03T11:13:02.928Z,101680.84
2023-04-03T11:15:06.240Z,101674.16
2023-04-03T11:17:22.210Z,101674.28
2023-04-03T11:19:34.997Z,101686.84
2023-04-03T11:21:41.546Z,101681.94
2023-04-03T11:23:49.636Z,101676.38
2023-04-03T11:25:55.223Z,101681.06
2023-04-03T11:27:58.786Z,101678.88
2023-04-03T11:30:00.870Z,101686.59
2023-04-03T11:32:13.476Z,101684.19
2023-04-03T11:34:26.337Z,101684.00
2023-04-03T11:36:32.157Z,101682.59
2023-04-03T11:38:38.968Z,101681.25
2023-04-03T11:40:40.823Z,101669.63
2023-04-03T11:42:46.902Z,101680.03
2023-04-03T11:44:51.351Z,101672.41
2023-04-03T11:46:57.237Z,101674.00
2023-04-03T11:48:59.526Z,101671.81
2023-04-03T11:51:02.751Z,101672.91
2023-04-03T11:53:27.721Z,101667.31
2023-04-03T11:55:58.797Z,101669.53
2023-04-03T11:58:12.237Z,101676.09
2023-04-03T12:00:49.902Z,101665.06
2023-04-03T12:02:54.829Z,101654.06
2023-04-03T12:05:29.011Z,101659.59
2023-04-03T12:07:30.791Z,101642.88
2023-04-03T12:10:30.397Z,101644.22
2023-04-03T12:12:37.723Z,101650.72
2023-04-03T12:14:39.762Z,101640.22
2023-04-03T12:16:46.545Z,101641.25
2023-04-03T12:19:03.190Z,101631.72
2023-04-03T12:21:05.301Z,101640.06
2023-04-03T12:23:25.054Z,101639.25
2023-04-03T12:25:49.581Z,101640.94
2023-04-03T12:27:53.075Z,101637.34
2023-04-03T12:30:02.536Z,101638.06
2023-04-03T12:32:13.899Z,101633.66
2023-04-03T12:34:32.404Z,101636.03
2023-04-03T12:36:43.461Z,101633.56
2023-04-03T12:39:14.428Z,101637.59
2023-04-03T12:41:24.433Z,101632.09
2023-04-03T12:43:44.466Z,101621.41
2023-04-03T12:45:51.468Z,101618.72
2023-04-03T12:47:55.452Z,101622.03
2023-04-03T12:49:58.413Z,101622.59
2023-04-03T12:52:00.849Z,101619.66
2023-04-03T12:54:13.491Z,101616.59
2023-04-03T12:56:24.589Z,101607.88
2023-04-03T12:58:28.674Z,101610.78
2023-04-03T13:00:36.463Z,101605.72
2023-04-03T13:02:38.124Z,101609.50
2023-04-03T13:04:39.924Z,101600.88
2023-04-03T13:06:43.537Z,101604.56
2023-04-03T13:08:53.262Z,101598.41
2023-04-03T13:10:59.132Z,101598.13
2023-04-03T13:13:10.851Z,101593.84
2023-04-03T13:15:18.023Z,101597.25
2023-04-03T13:17:19.848Z,101593.78
2023-04-03T13:19:23.270Z,101590.22
2023-04-03T13:21:27.375Z,101598.13
2023-04-03T13:23:29.914Z,101602.56
2023-04-03T13:25:34.192Z,101599.78
2023-04-03T13:27:36.496Z,101598.03
2023-04-03T13:29:39.970Z,101597.16
2023-04-03T13:31:42.084Z,101602.63
2023-04-03T13:33:55.904Z,101595.66
2023-04-03T13:35:58.878Z,101598.59
2023-04-03T13:38:02.842Z,101601.84
2023-04-03T13:40:11.922Z,101605.00
2023-04-03T13:42:22.572Z,101597.28
2023-04-03T13:44:31.204Z,101601.63
2023-04-03T13:46:34.165Z,101607.66
2023-04-03T13:48:39.415Z,101599.22
2023-04-03T13:51:02.090Z,101601.00
2023-04-03T13:53:12.879Z,101605.97
2023-04-03T13:55:26.024Z,101595.44
2023-04-03T13:57:29.102Z,101587.78
2023-04-03T13:59:32.492Z,101586.34
2023-04-03T14:01:42.180Z,101579.41
2023-04-03T14:03:46.800Z,101587.28
2023-04-03T14:05:48.898Z,101589.66
2023-04-03T14:07:50.684Z,101580.94
2023-04-03T14:09:53.191Z,101582.94
2023-04-03T14:11:58.528Z,101569.66
2023-04-03T14:14:03.919Z,101576.38
2023-04-03T14:16:15.587Z,101573.16
2023-04-03T14:18:20.975Z,101587.94
2023-04-03T14:20:25.728Z,101576.34
2023-04-03T14:22:30.446Z,101586.22
2023-04-03T14:24:32.088Z,101573.34
2023-04-03T14:26:34.186Z,101569.75
2023-04-03T14:28:36.150Z,101570.88
2023-04-03T14:30:37.893Z,101572.75
2023-04-03T14:32:39.903Z,101553.09
2023-04-03T14:34:44.454Z,101558.44
2023-04-03T14:36:46.245Z,101557.06
2023-04-03T14:38:50.003Z,101557.84
2023-04-03T14:40:52.085Z,101547.13
2023-04-03T14:42:54.454Z,101548.72
2023-04-03T14:44:56.093Z,101545.84
2023-04-03T14:46:57.802Z,101540.97
2023-04-03T14:49:00.044Z,101543.44
2023-04-03T14:51:06.050Z,101536.19
2023-04-03T14:53:08.083Z,101539.63
2023-04-03T14:55:10.548Z,101535.63
2023-04-03T14:57:14.982Z,101535.09
2023-04-03T14:59:16.777Z,101535.84
2023-04-03T15:01:18.986Z,101540.25
2023-04-03T15:03:23.138Z,101536.69
2023-04-03T15:05:25.125Z,101542.31
2023-04-03T15:07:31.271Z,101542.44
2023-04-03T15:09:32.978Z,101533.94
2023-04-03T15:11:34.566Z,101533.91
2023-04-03T15:13:36.575Z,101529.59
2023-04-03T15:15:39.042Z,101536.75
2023-04-03T15:17:49.434Z,101530.34
2023-04-03T15:19:51.142Z,101536.72
2023-04-03T15:21:52.732Z,101535.69
2023-04-03T15:23:55.682Z,101545.50
2023-04-03T15:25:57.819Z,101542.00
2023-04-03T15:28:00.882Z,101539.22
2023-04-03T15:30:03.916Z,101535.31
2023-04-03T15:32:06.113Z,101537.00
2023-04-03T15:34:07.775Z,101533.50
2023-04-03T15:36:22.968Z,101536.34
2023-04-03T15:38:31.801Z,101539.75
2023-04-03T15:40:35.017Z,101532.00
2023-04-03T15:42:36.732Z,101538.44
2023-04-03T15:44:38.391Z,101529.56
2023-04-03T15:46:40.245Z,101535.78
2023-04-03T15:48:41.838Z,101529.59
2023-04-03T15:50:43.670Z,101534.19
2023-04-03T15:52:45.334Z,101535.13
2023-04-03T15:54:47.048Z,101539.53
2023-04-03T15:56:50.375Z,101534.13
2023-04-03T15:58:51.971Z,101536.81
2023-04-03T16:00:53.871Z,101532.69
2023-04-03T16:02:59.108Z,101534.47
2023-04-03T16:05:03.559Z,101534.88
2023-04-03T16:07:05.485Z,101532.72
2023-04-03T16:09:07.802Z,101537.34
2023-04-03T16:11:09.686Z,101543.59
2023-04-03T16:13:12.940Z,101544.16
2023-04-03T16:15:14.649Z,101537.72
2023-04-03T16:17:16.325Z,101544.25
2023-04-03T16:19:18.482Z,101548.28
2023-04-03T16:21:20.137Z,101548.88
2023-04-03T16:23:22.669Z,101547.31
2023-04-03T16:25:24.201Z,101541.06
2023-04-03T16:27:26.010Z,101543.13
2023-04-03T16:29:28.979Z,101549.31
2023-04-03T16:31:33.203Z,101544.34
2023-04-03T16:33:35.118Z,101546.53
2023-04-03T16:35:37.521Z,101545.09
2023-04-03T16:37:40.114Z,101544.78
2023-04-03T16:39:41.696Z,101542.38
2023-04-03T16:41:43.305Z,101546.28
2023-04-03T16:43:45.120Z,101543.31
2023-04-03T16:45:48.391Z,101540.06
2023-04-03T16:47:50.475Z,101549.06
2023-04-03T16:49:52.345Z,101549.16
2023-04-03T16:51:54.072Z,101544.28
2023-04-03T16:53:58.752Z,101549.81
2023-04-03T16:56:00.372Z,101554.97
2023-04-03T16:58:01.983Z,101557.00
2023-04-03T17:00:04.618Z,101554.84
2023-04-03T17:02:07.646Z,101560.16
2023-04-03T17:04:09.730Z,101554.84
2023-04-03T17:06:16.332Z,101559.69
2023-04-03T17:08:18.655Z,101565.63
2023-04-03T17:10:20.357Z,101559.28
2023-04-03T17:12:22.935Z,101565.81
2023-04-03T17:14:24.594Z,101563.19
2023-04-03T17:16:27.821Z,101562.34
2023-04-03T17:18:31.509Z,101563.16
2023-04-03T17:20:33.206Z,101568.72
2023-04-03T17:22:35.082Z,101569.47
2023-04-03T17:24:36.843Z,101565.16
2023-04-03T17:26:39.167Z,101559.53
2023-04-03T17:28:41.034Z,101559.53
2023-04-03T17:30:42.744Z,101560.31
2023-04-03T17:32:44.407Z,101559.28
2023-04-03T17:34:48.004Z,101559.53
2023-04-03T17:36:49.735Z,101563.19
2023-04-03T17:38:51.963Z,101566.38
2023-04-03T17:40:56.875Z,101575.63
2023-04-03T17:42:58.515Z,101573.81
2023-04-03T17:45:00.419Z,101575.56
2023-04-03T17:47:02.020Z,101579.72
2023-04-03T17:49:03.782Z,101577.19
2023-04-03T17:51:07.702Z,101575.25
2023-04-03T17:53:12.681Z,101576.47
2023-04-03T17:55:16.810Z,101575.09
2023-04-03T17:57:18.398Z,101572.88
2023-04-03T17:59:20.016Z,101574.53
2023-04-03T18:01:24.123Z,101578.38
2023-04-03T18:03:25.730Z,101586.53
2023-04-03T18:05:28.776Z,101586.44
2023-04-03T18:07:31.808Z,101587.25
2023-04-03T18:09:34.120Z,101586.28
2023-04-03T18:11:36.178Z,101585.66
2023-04-03T18:13:38.091Z,101588.09
2023-04-03T18:15:39.897Z,101594.53
2023-04-03T18:17:41.786Z,101593.72
2023-04-03T18:19:43.523Z,101589.16
2023-04-03T18:21:45.301Z,101585.13
2023-04-03T18:23:52.740Z,101594.09
2023-04-03T18:25:54.765Z,101593.47
2023-04-03T18:27:56.520Z,101596.91
2023-04-03T18:30:02.335Z,101594.22
2023-04-03T18:32:07.422Z,101601.81
2023-04-03T18:34:09.084Z,101593.63
2023-04-03T18:36:11.068Z,101601.72
2023-04-03T18:38:12.805Z,101602.84
2023-04-03T18:40:15.773Z,101605.03
2023-04-03T18:42:21.324Z,101598.75
2023-04-03T18:44:24.809Z,101606.34
2023-04-03T18:46:26.474Z,101606.59
2023-04-03T18:48:30.067Z,101601.72
2023-04-03T18:50:32.849Z,101603.41
2023-04-03T18:52:34.800Z,101607.88
2023-04-03T18:54:36.450Z,101609.34
2023-04-03T18:56:39.453Z,101603.63
2023-04-03T18:58:41.295Z,101605.16
2023-04-03T19:00:43.232Z,101609.25
2023-04-03T19:02:45.473Z,101622.50
2023-04-03T19:04:47.940Z,101618.41
2023-04-03T19:06:49.857Z,101622.88
2023-04-03T19:08:51.673Z,101629.75
2023-04-03T19:10:53.263Z,101626.81
2023-04-03T19:12:56.186Z,101627.88
2023-04-03T19:14:57.800Z,101626.72
2023-04-03T19:16:59.485Z,101634.34
2023-04-03T19:19:01.243Z,101631.13
2023-04-03T19:21:03.014Z,101634.53
2023-04-03T19:23:04.707Z,101636.66
2023-04-03T19:25:08.095Z,101644.13
2023-04-03T19:27:09.815Z,101649.84
2023-04-03T19:29:12.759Z,101641.44
2023-04-03T19:31:16.164Z,101644.16
2023-04-03T19:33:17.833Z,101647.69
2023-04-03T19:35:19.896Z,101638.59
2023-04-03T19:37:21.500Z,101644.78
2023-04-03T19:39:23.487Z,101641.97
2023-04-03T19:41:27.534Z,101648.16
2023-04-03T19:43:29.186Z,101642.56
2023-04-03T19:45:32.242Z,101647.72
2023-04-03T19:47:34.253Z,101648.66
2023-04-03T19:49:35.905Z,101651.91
2023-04-03T19:51:37.528Z,101644.81
2023-04-03T19:53:39.204Z,101649.47
2023-04-03T19:55:40.846Z,101652.25
2023-04-03T19:57:42.563Z,101650.28
2023-04-03T19:59:44.206Z,101651.91
2023-04-03T20:01:47.327Z,101655.91
2023-04-03T20:03:49.067Z,101656.81
2023-04-03T20:05:50.764Z,101661.50
2023-04-03T20:07:52.390Z,101649.81
2023-04-03T20:09:54.114Z,101663.13
2023-04-03T20:11:55.622Z,101657.75
2023-04-03T20:13:57.166Z,101658.69
2023-04-03T20:16:02.215Z,101663.13
2023-04-03T20:18:05.433Z,101661.13
2023-04-03T20:20:08.641Z,101659.03
2023-04-03T20:22:10.260Z,101660.63
2023-04-03T20:24:12.646Z,101659.78
2023-04-03T20:26:20.175Z,101658.25
2023-04-03T20:28:22.857Z,101661.78
2023-04-03T20:30:24.576Z,101658.34
2023-04-03T20:32:26.323Z,101659.03
2023-04-03T20:34:29.330Z,101659.28
2023-04-03T20:36:31.331Z,101657.78
2023-04-03T20:38:32.988Z,101656.25
2023-04-03T20:40:35.202Z,101658.38
2023-04-03T20:42:36.742Z,101659.19
2023-04-03T20:44:38.957Z,101654.75
2023-04-03T20:46:52.313Z,101655.81
2023-04-03T20:48:54.921Z,101659.44
2023-04-03T20:50:57.931Z,101654.06
2023-04-03T20:53:00.146Z,101654.31
2023-04-03T20:55:01.788Z,101659.63
2023-04-03T20:57:03.382Z,101655.00
2023-04-03T20:59:05.066Z,101653.56
2023-04-03T21:01:15.344Z,101654.72
2023-04-03T21:03:16.999Z,101648.03
2023-04-03T21:05:18.737Z,101650.78
2023-04-03T21:07:57.847Z,101653.66
2023-04-03T21:10:36.936Z,101654.75
2023-04-03T21:13:15.452Z,101650.59
2023-04-03T21:15:47.932Z,101659.59
2023-04-03T21:18:14.314Z,101658.25
2023-04-03T21:20:16.052Z,101654.16
2023-04-03T21:22:17.666Z,101655.44
2023-04-03T21:24:26.597Z,101653.41
2023-04-03T21:26:28.340Z,101655.78
2023-04-03T21:28:30.227Z,101659.81
2023-04-03T21:30:31.843Z,101661.00
2023-04-03T21:32:33.447Z,101659.50
2023-04-03T21:34:36.513Z,101659.72
2023-04-03T21:36:40.064Z,101663.25
2023-04-03T21:38:41.825Z,101659.63
2023-04-03T21:40:43.351Z,101655.44
2023-04-03T21:42:44.900Z,101654.31
2023-04-03T21:44:46.484Z,101656.59
2023-04-03T21:46:49.247Z,101650.78
2023-04-03T21:48:51.116Z,101657.44
2023-04-03T21:50:54.017Z,101654.75
2023-04-03T21:52:55.565Z,101656.03
2023-04-03T21:54:57.080Z,101662.47
2023-04-03T21:56:58.669Z,101660.22
2023-04-03T21:59:01.672Z,101652.19
2023-04-03T22:01:10.142Z,101656.59
2023-04-03T22:03:11.778Z,101662.19
2023-04-03T22:05:13.525Z,101650.03
2023-04-03T22:07:16.624Z,101653.75
2023-04-03T22:09:18.192Z,101660.66
2023-04-03T22:11:20.073Z,101656.09
2023-04-03T22:13:21.680Z,101654.44
2023-04-03T22:15:23.188Z,101660.50
2023-04-03T22:17:24.850Z,101660.09
2023-04-03T22:19:26.526Z,101659.31
2023-04-03T22:21:28.209Z,101655.19
2023-04-03T22:23:31.190Z,101658.78
2023-04-03T22:25:33.147Z,101664.00
2023-04-03T22:27:34.822Z,101654.03
2023-04-03T22:29:36.364Z,101657.13
2023-04-03T22:31:37.900Z,101655.25
2023-04-03T22:33:40.670Z,101666.72
2023-04-03T22:35:46.024Z,101656.00
2023-04-03T22:37:47.673Z,101664.00
2023-04-03T22:39:50.629Z,101659.44
2023-04-03T22:41:52.186Z,101663.88
2023-04-03T22:43:53.760Z,101653.25
2023-04-03T22:45:56.118Z,101656.81
2023-04-03T22:47:57.799Z,101657.72
2023-04-03T22:49:59.401Z,101658.38
2023-04-03T22:52:00.938Z,101649.22
2023-04-03T22:54:02.597Z,101648.50
2023-04-03T22:56:06.933Z,101651.97
2023-04-03T22:58:11.427Z,101657.16
2023-04-03T23:00:14.443Z,101651.81
2023-04-03T23:02:16.092Z,101655.56
2023-04-03T23:04:17.920Z,101649.53
2023-04-03T23:06:19.529Z,101655.47
2023-04-03T23:08:21.117Z,101651.31
2023-04-03T23:10:22.721Z,101644.84
2023-04-03T23:12:25.718Z,101650.94
2023-04-03T23:14:27.250Z,101651.84
2023-04-03T23:16:28.914Z,101651.00
2023-04-03T23:18:31.716Z,101661.28
2023-04-03T23:20:33.332Z,101659.81
2023-04-03T23:22:34.910Z,101660.41
2023-04-03T23:24:36.512Z,101653.84
2023-04-03T23:26:38.048Z,101652.38
2023-04-03T23:28:43.734Z,101651.69
2023-04-03T23:30:45.447Z,101651.91
2023-04-03T23:32:47.102Z,101652.38
2023-04-03T23:34:48.644Z,101655.41
2023-04-03T23:36:50.220Z,101652.38